Aeroporto :
LOGIN :

Iscrizione | Disclaimer

   EN    FR    IT 

 










Sommario :    VFR   VFR Marginale   IFR   IFR Intensivo   IFR Molto Intensivo
Visibilità : 
Base nubi : 
>= 8 km
>= 3000ft
5 / 8 km
1000 / 3000 ft
1500m / 5 km
500 / 1000 ft
800 / 1500m
200 / 500 ft
< 800m
< 200 ft
Simboli :   Temporali  Nebbia  Neve Forte  Precipitazioni Forti  Vento > 20 kt
SIGMETs :   Varie  Temporali  Ghiacco  Turbolenza  Onda orograficha  Ceneri Vulcaniche






- Altitudine del aeroporto : 341 ft


EPMO - Modlin

ULTIMO METAR :
  • 251130Z 26011KT 1200 R08/1500D -DZ BR OVC003 01/01 Q1019

METARs OBSOLETI :
  • 251100Z 25009KT 1200 R08/1200N -DZ BR OVC003 01/01 Q1019
  • 251030Z 25012KT 1200 R08/1100N -DZ BR OVC003 01/01 Q1019
  • 251000Z 24011KT 1500 R08/1300N -DZ BR OVC003 01/01 Q1019
  • 250930Z 25011KT 1400 R08/1300N -DZ BR OVC003 00/00 Q1019

TAF TAF EPMO
Valido dal 25 a 12 ore il 26 a 12 ore UTC


251130Z 2512/2612 26010KT 2000 -DZ BR OVC005
TEMPO 2512/2516 1000 -DZ BR OVC003
TEMPO 2516/2607 1200 -DZ BR OVC001
BECMG 2605/2607 20006KT
BECMG 2607/2610 5000 BR BKN010



MetMap, La meteo Aeronautica in un colpo d'occhio ! - Copyright ORBIFLY Dicembre 2007 - Disclaimer

ORBIFLY MET'MAP TEAM :

Programmazione e sviluppo : Alexandra Zaïnal
Concezione : Baudouin d'Aumeries
Aiuto per la programmazione : Marc-Olivier Méhu
Supporto tecnico e logistico : Manuel Goepfert
Aiuto per la traduzione : Arnaldo La Scala

Contatto : metmap@orbifly.com




FONTI E CREDITI :

   NOAA